Time;durP1;ratioP1;P1;durP2;ratioP2;P2;SDS_P1;SDS_P2;PMS_P1;PMS_P2;Temp;Humidity;BMP_temperature;BMP_pressure;BME280_temperature;BME280_humidity;BME280_pressure;Samples;Min_cycle;Max_cycle;Signal;HPM_P1;HPM_P2
2022/10/05 00:02:22;;;;;;;12.45;5.47;;;;;;;10.27;78.11;101607.89;1650419;85;21054;-88
2022/10/05 00:04:51;;;;;;;16.82;7.03;;;;;;;10.23;78.08;101605.94;1669055;85;21141;-82
2022/10/05 00:07:19;;;;;;;13.75;5.87;;;;;;;10.19;78.08;101614.55;1593509;88;21902;-88
2022/10/05 00:09:54;;;;;;;18.77;7.12;;;;;;;10.13;78.05;101613.89;1599623;87;21077;-88
2022/10/05 00:12:21;;;;;;;16.12;6.25;;;;;;;10.10;78.09;101607.20;1664168;84;21058;-87
2022/10/05 00:14:50;;;;;;;12.85;6.65;;;;;;;10.07;78.13;101596.55;1671575;85;21073;-87
2022/10/05 00:17:23;;;;;;;17.30;6.50;;;;;;;10.05;78.19;101612.69;1640848;86;21082;-89
2022/10/05 00:19:53;;;;;;;14.18;6.55;;;;;;;10.02;78.21;101617.42;1666465;84;21805;-88
2022/10/05 00:22:25;;;;;;;20.00;7.40;;;;;;;10.00;78.24;101614.23;1647456;85;21054;-81
2022/10/05 00:24:55;;;;;;;18.90;9.55;;;;;;;9.97;78.24;101619.38;1667860;85;21087;-81
2022/10/05 00:27:31;;;;;;;16.27;7.78;;;;;;;9.92;78.28;101627.95;1649769;85;21064;-89
2022/10/05 00:30:00;;;;;;;17.42;6.60;;;;;;;9.89;78.34;101621.27;1647990;84;21086;-81
2022/10/05 00:32:27;;;;;;;13.58;6.72;;;;;;;9.87;78.31;101599.66;1655453;85;21792;-89
2022/10/05 00:34:54;;;;;;;12.55;6.47;;;;;;;9.84;78.36;101594.30;1676113;84;39936;-81
2022/10/05 00:37:22;;;;;;;13.45;6.60;;;;;;;9.82;78.39;101584.14;1603794;86;21814;-82
2022/10/05 00:39:48;;;;;;;12.65;6.25;;;;;;;9.84;78.51;101589.05;1666257;85;21066;-89
2022/10/05 00:42:48;;;;;;;12.00;5.78;;;;;;;9.84;78.58;101590.36;1651936;84;21132;-82
2022/10/05 00:45:23;;;;;;;13.62;6.42;;;;;;;9.84;78.60;101587.30;1659302;86;21800;-82
2022/10/05 00:48:10;;;;;;;11.78;6.47;;;;;;;9.85;78.72;101586.48;1650358;84;21102;-89
2022/10/05 00:51:01;;;;;;;12.88;6.05;;;;;;;9.87;78.76;101581.26;1677064;84;21304;-88
2022/10/05 00:53:38;;;;;;;15.93;6.67;;;;;;;9.88;78.83;101572.55;1618958;88;21177;-82
2022/10/05 00:56:40;;;;;;;16.85;7.53;;;;;;;9.90;78.83;101577.02;1614927;88;21114;-82
2022/10/05 00:59:39;;;;;;;14.20;6.45;;;;;;;9.91;78.82;101572.27;1610213;88;21847;-88
2022/10/05 01:02:28;;;;;;;12.37;6.37;;;;;;;9.93;78.91;101566.64;1615038;88;21090;-90
2022/10/05 01:05:17;;;;;;;12.10;7.15;;;;;;;9.95;78.88;101566.71;1597500;88;21155;-82
2022/10/05 01:07:52;;;;;;;14.70;6.92;;;;;;;9.92;78.85;101560.89;1615062;88;21075;-80
2022/10/05 01:10:36;;;;;;;12.93;7.50;;;;;;;9.92;78.86;101562.20;1615400;88;21763;-80
2022/10/05 01:13:32;;;;;;;13.58;7.12;;;;;;;9.92;78.89;101562.20;1615130;88;22189;-87
2022/10/05 01:16:18;;;;;;;19.15;7.12;;;;;;;9.93;78.87;101566.64;1615230;88;21082;-80
2022/10/05 01:18:56;;;;;;;14.05;6.10;;;;;;;9.92;78.89;101556.05;1605715;88;21826;-86
2022/10/05 01:21:25;;;;;;;13.10;6.47;;;;;;;9.91;78.88;101547.28;1608248;88;21098;-80
2022/10/05 01:24:26;;;;;;;12.43;5.80;;;;;;;9.89;78.91;101535.80;1614758;88;21114;-79
2022/10/05 01:27:32;;;;;;;12.55;5.92;;;;;;;9.90;78.92;101532.75;1614502;88;21255;-86
2022/10/05 01:30:07;;;;;;;13.95;5.42;;;;;;;9.89;79.00;101529.23;1659975;85;21023;-80
2022/10/05 01:32:42;;;;;;;13.03;5.22;;;;;;;9.88;79.02;101523.91;1648370;85;21096;-79
2022/10/05 01:35:26;;;;;;;13.13;5.47;;;;;;;9.86;79.05;101521.63;1671231;85;21144;-80
2022/10/05 01:38:16;;;;;;;13.38;5.78;;;;;;;9.84;79.10;101524.63;1662141;84;21073;-79
2022/10/05 01:40:52;;;;;;;8.83;5.60;;;;;;;9.83;79.18;101533.33;1649015;85;21923;-80
2022/10/05 01:43:33;;;;;;;15.08;5.83;;;;;;;9.83;79.30;101539.47;1648639;85;21089;-80
2022/10/05 01:46:37;;;;;;;17.85;5.47;;;;;;;9.86;79.33;101541.35;1648392;85;21102;-87
2022/10/05 01:49:18;;;;;;;18.30;5.97;;;;;;;9.87;79.42;101537.88;1668415;84;21331;-86
2022/10/05 01:52:10;;;;;;;16.20;5.83;;;;;;;9.91;79.52;101539.81;1646966;85;21093;-80
2022/10/05 01:55:01;;;;;;;10.68;5.55;;;;;;;9.95;79.55;101544.36;1657060;85;21790;-87
2022/10/05 01:58:01;;;;;;;11.97;5.70;;;;;;;9.98;79.56;101552.34;1674345;85;21089;-87
2022/10/05 02:00:28;;;;;;;9.75;5.53;;;;;;;10.00;79.53;101545.41;1646924;85;21074;-80
2022/10/05 02:03:13;;;;;;;13.88;5.75;;;;;;;10.01;79.48;101547.66;1669913;85;21082;-86
2022/10/05 02:06:01;;;;;;;;;;;;;;;10.01;79.48;101537.13;1610762;87;21115;-86
2022/10/05 02:08:38;;;;;;;12.33;5.70;;;;;;;10.02;79.54;101542.85;1656264;85;21793;-80
2022/10/05 02:11:10;;;;;;;13.90;5.53;;;;;;;10.00;79.51;101541.47;1673110;85;22114;-81
2022/10/05 02:13:54;;;;;;;11.83;5.60;;;;;;;10.01;79.52;101537.13;1666501;85;21078;-87
2022/10/05 02:16:28;;;;;;;11.60;6.22;;;;;;;10.01;79.56;101528.81;1665895;85;22341;-87
2022/10/05 02:19:17;;;;;;;11.97;5.58;;;;;;;10.05;79.65;101520.63;1674126;85;21587;-87
2022/10/05 02:21:47;;;;;;;15.58;5.90;;;;;;;10.03;79.62;101518.36;1681609;85;21869;-80
2022/10/05 02:24:22;;;;;;;18.15;5.60;;;;;;;10.02;79.61;101528.38;1685305;85;21071;-80
2022/10/05 02:26:50;;;;;;;15.60;5.92;;;;;;;10.02;79.67;101531.02;1628908;87;21124;-80
2022/10/05 02:29:17;;;;;;;14.03;5.80;;;;;;;10.00;79.62;101530.95;1657592;84;21125;-80
2022/10/05 02:31:52;;;;;;;11.75;6.03;;;;;;;9.97;79.57;101523.39;1676932;85;22204;-80
2022/10/05 02:34:28;;;;;;;11.88;5.37;;;;;;;9.90;79.48;101511.28;1657549;84;21774;-80
2022/10/05 02:37:09;;;;;;;10.90;5.58;;;;;;;9.86;79.47;101496.66;1660454;85;21030;-80
2022/10/05 02:39:54;;;;;;;15.20;6.37;;;;;;;9.80;79.52;101492.44;1682675;85;21421;-85
2022/10/05 02:42:38;;;;;;;11.45;5.50;;;;;;;9.76;79.57;101487.50;1665179;85;21110;-86
2022/10/05 02:45:23;;;;;;;14.00;6.10;;;;;;;9.73;79.63;101487.37;1664260;85;21110;-86
2022/10/05 02:48:13;;;;;;;13.78;5.85;;;;;;;9.70;79.75;101484.61;1668632;85;21721;-80
2022/10/05 02:51:00;;;;;;;11.50;5.90;;;;;;;9.66;79.77;101472.18;1684884;85;21627;-87
2022/10/05 02:53:55;;;;;;;12.40;6.35;;;;;;;9.61;79.80;101472.02;1667624;85;21718;-80
2022/10/05 02:56:48;;;;;;;18.55;7.28;;;;;;;9.54;79.82;101472.16;1670975;85;21114;-80
2022/10/05 02:59:30;;;;;;;17.80;6.90;;;;;;;9.50;79.91;101466.73;1681699;85;21065;-80
2022/10/05 03:02:41;;;;;;;13.75;7.08;;;;;;;9.46;79.94;101468.34;1668965;85;21109;-86
2022/10/05 03:05:29;;;;;;;14.07;6.72;;;;;;;9.40;79.98;101468.06;1598831;87;21340;-80
2022/10/05 03:08:01;;;;;;;13.62;6.70;;;;;;;9.33;80.04;101464.73;1601807;88;21097;-80
2022/10/05 03:11:02;;;;;;;10.38;6.15;;;;;;;9.29;80.08;101466.72;1624737;87;21111;-81
2022/10/05 03:13:49;;;;;;;12.90;6.70;;;;;;;9.24;80.17;101459.98;1615513;87;21106;-81
2022/10/05 03:16:41;;;;;;;14.25;6.35;;;;;;;9.20;80.22;101456.75;1588439;88;21789;-80
2022/10/05 03:19:28;;;;;;;13.05;6.42;;;;;;;9.14;80.26;101454.77;1567459;91;21145;-86
2022/10/05 03:22:02;;;;;;;15.85;7.30;;;;;;;9.11;80.35;101457.25;1636035;86;21093;-86
2022/10/05 03:24:50;;;;;;;9.85;6.97;;;;;;;9.05;80.43;101455.69;1635751;86;21693;-80
2022/10/05 03:27:43;;;;;;;16.07;7.47;;;;;;;9.02;80.51;101457.28;1636002;86;21128;-80
2022/10/05 03:30:18;;;;;;;12.98;6.62;;;;;;;9.00;80.60;101462.88;1628126;86;21745;-81
2022/10/05 03:33:10;;;;;;;14.53;7.12;;;;;;;8.97;80.69;101457.48;1629123;86;21154;-81
2022/10/05 03:35:53;;;;;;;14.03;7.35;;;;;;;8.93;80.81;101453.44;1634154;86;21117;-86
2022/10/05 03:38:43;;;;;;;14.78;7.50;;;;;;;8.92;80.85;101462.56;1627021;86;21423;-86
2022/10/05 03:41:44;;;;;;;14.33;7.17;;;;;;;8.89;80.95;101465.04;1635138;86;21609;-85
2022/10/05 03:44:24;;;;;;;12.95;7.92;;;;;;;8.88;81.03;101455.39;1593999;88;21769;-79
2022/10/05 03:47:22;;;;;;;13.10;6.80;;;;;;;8.86;81.06;101449.14;1594304;89;21667;-87
2022/10/05 03:50:00;;;;;;;11.48;7.22;;;;;;;8.84;81.11;101445.55;1550648;90;21177;-87
2022/10/05 03:52:33;;;;;;;13.35;7.30;;;;;;;8.82;81.20;101438.03;1620340;86;21125;-87
2022/10/05 03:55:03;;;;;;;15.65;7.58;;;;;;;8.81;81.23;101445.45;1646591;85;21141;-86
2022/10/05 03:57:35;;;;;;;13.60;7.03;;;;;;;8.81;81.35;101438.88;1649956;85;21801;-82
2022/10/05 04:00:11;;;;;;;18.45;7.58;;;;;;;8.79;81.35;101440.55;1646625;85;21046;-80
2022/10/05 04:02:52;;;;;;;13.35;7.37;;;;;;;8.78;81.37;101446.61;1663782;83;21053;-81
2022/10/05 04:05:31;;;;;;;16.42;7.40;;;;;;;8.75;81.42;101448.28;1653332;85;21055;-87
2022/10/05 04:08:24;;;;;;;17.87;8.25;;;;;;;8.74;81.48;101449.52;1674898;85;21059;-81
2022/10/05 04:10:56;;;;;;;13.00;6.92;;;;;;;8.72;81.56;101449.45;1660232;85;21782;-87
2022/10/05 04:13:32;;;;;;;14.03;7.42;;;;;;;8.71;81.56;101441.11;1657090;85;21072;-87
2022/10/05 04:16:09;;;;;;;18.52;7.15;;;;;;;8.70;81.61;101433.16;1662335;85;21066;-81
2022/10/05 04:18:43;;;;;;;15.78;6.42;;;;;;;8.68;81.66;101431.78;1643312;85;21058;-86
2022/10/05 04:21:20;;;;;;;15.38;7.22;;;;;;;8.69;81.70;101433.98;1648151;86;21090;-86
2022/10/05 04:24:36;;;;;;;13.40;6.58;;;;;;;8.68;81.79;101431.78;1669742;85;22779;-89
2022/10/05 04:27:19;;;;;;;12.80;6.60;;;;;;;8.63;81.87;101421.48;1674166;85;21082;-86
2022/10/05 04:30:07;;;;;;;15.08;8.00;;;;;;;8.69;82.02;101429.65;1672838;85;21619;-83
2022/10/05 04:32:38;;;;;;;14.47;8.33;;;;;;;8.72;82.13;101436.75;1661504;85;21072;-84
2022/10/05 04:35:33;;;;;;;11.57;6.80;;;;;;;8.75;82.20;101430.33;1658934;84;21060;-83
2022/10/05 04:38:46;;;;;;;14.87;6.87;;;;;;;8.78;82.31;101426.50;1658324;85;21866;-85
2022/10/05 04:41:43;;;;;;;14.03;6.35;;;;;;;8.83;82.34;101431.97;1653406;85;21108;-84
2022/10/05 04:44:27;;;;;;;11.63;6.75;;;;;;;8.88;82.41;101434.39;1652258;85;21101;-81
2022/10/05 04:47:27;;;;;;;14.55;6.83;;;;;;;8.91;82.48;101436.70;1664265;85;21572;-81
2022/10/05 04:50:11;;;;;;;11.75;6.40;;;;;;;8.98;82.58;101433.93;1661770;85;21088;-80
2022/10/05 04:53:01;;;;;;;11.78;6.85;;;;;;;9.04;82.61;101427.61;1658256;84;22623;-80
2022/10/05 04:55:54;;;;;;;14.75;6.83;;;;;;;9.10;82.65;101423.03;1676023;85;21302;-83
2022/10/05 04:58:46;;;;;;;15.68;6.92;;;;;;;9.15;82.70;101419.77;1676095;85;21047;-84
2022/10/05 05:01:37;;;;;;;11.43;6.90;;;;;;;9.21;82.70;101415.61;1672266;84;21607;-82
2022/10/05 05:04:52;;;;;;;14.50;6.80;;;;;;;9.25;82.67;101411.88;1643534;85;21094;-85
2022/10/05 05:07:30;;;;;;;;;;;;;;;9.32;82.72;101395.50;1662726;85;22590;-83
2022/10/05 05:10:33;;;;;;;12.53;7.00;;;;;;;9.38;82.73;101374.25;1673663;85;20718;-84
2022/10/05 05:13:23;;;;;;;12.00;6.47;;;;;;;9.43;82.68;101368.78;1655220;85;21085;-85
2022/10/05 05:16:08;;;;;;;12.78;6.35;;;;;;;9.48;82.74;101372.48;1660587;85;21967;-83
2022/10/05 05:18:58;;;;;;;15.53;6.72;;;;;;;9.54;82.84;101363.09;1660703;84;21100;-83
2022/10/05 05:21:36;;;;;;;17.37;7.70;;;;;;;9.65;82.79;101360.00;1664481;85;21850;-82
2022/10/05 05:24:17;;;;;;;10.50;7.47;;;;;;;9.71;82.77;101366.80;1660404;85;21090;-82
2022/10/05 05:26:52;;;;;;;13.53;6.95;;;;;;;9.78;82.72;101373.17;1675652;84;21110;-82
2022/10/05 05:29:46;;;;;;;14.05;6.95;;;;;;;9.86;82.64;101366.49;1675362;85;21290;-82
2022/10/05 05:32:36;;;;;;;10.80;7.10;;;;;;;9.85;82.63;101353.77;1673084;85;21074;-82
2022/10/05 05:35:23;;;;;;;14.65;7.40;;;;;;;10.00;82.59;101371.83;1653211;85;21770;-82
2022/10/05 05:38:14;;;;;;;12.07;6.80;;;;;;;10.09;82.56;101380.48;1660178;85;21094;-82
2022/10/05 05:41:07;;;;;;;13.65;7.72;;;;;;;10.17;82.52;101379.02;1647184;84;21086;-82
2022/10/05 05:43:54;;;;;;;11.93;7.70;;;;;;;10.23;82.51;101363.48;1672288;84;21591;-82
2022/10/05 05:46:29;;;;;;;16.80;7.72;;;;;;;10.31;82.41;101376.52;1675835;85;21086;-82
2022/10/05 05:48:57;;;;;;;11.70;6.72;;;;;;;10.39;82.35;101386.44;1655277;84;22282;-82
2022/10/05 05:51:40;;;;;;;13.08;6.92;;;;;;;10.45;82.32;101386.21;1683813;85;21034;-82
2022/10/05 05:54:21;;;;;;;11.30;7.58;;;;;;;10.56;82.29;101386.60;1682598;85;21081;-86
2022/10/05 05:56:56;;;;;;;11.90;6.60;;;;;;;10.68;82.20;101372.56;1674550;85;21067;-87
2022/10/05 05:59:30;;;;;;;13.48;6.87;;;;;;;10.82;82.10;101373.02;1670604;85;21130;-82
2022/10/05 06:02:13;;;;;;;12.13;6.65;;;;;;;10.97;82.07;101371.77;1633171;86;21766;-85
2022/10/05 06:04:45;;;;;;;15.63;7.20;;;;;;;11.12;81.89;101374.89;1620765;86;21151;-82
2022/10/05 06:07:22;;;;;;;17.32;6.53;;;;;;;11.27;81.66;101369.23;1609462;88;21395;-82
2022/10/05 06:10:13;;;;;;;13.35;6.87;;;;;;;11.41;81.49;101374.92;1610182;87;21588;-87
2022/10/05 06:12:43;;;;;;;11.60;6.53;;;;;;;11.56;81.33;101383.73;1619189;86;21689;-83
2022/10/05 06:15:34;;;;;;;14.23;7.22;;;;;;;11.74;81.25;101394.86;1609847;88;21774;-82
2022/10/05 06:18:06;;;;;;;11.85;6.97;;;;;;;11.95;81.12;101390.68;1626968;87;21092;-83
2022/10/05 06:20:59;;;;;;;17.98;6.03;;;;;;;12.13;80.83;101374.94;1608215;88;21885;-82
2022/10/05 06:23:53;;;;;;;14.20;7.00;;;;;;;12.27;80.50;101378.84;1609097;87;21120;-84
2022/10/05 06:26:38;;;;;;;11.50;6.30;;;;;;;12.36;80.19;101381.73;1605649;88;21104;-84
2022/10/05 06:29:08;;;;;;;15.98;7.87;;;;;;;12.46;79.89;101385.52;1609337;88;22488;-84
2022/10/05 06:31:52;;;;;;;12.70;6.72;;;;;;;12.50;79.56;101375.54;1673000;85;21581;-84
2022/10/05 06:34:47;;;;;;;11.30;6.25;;;;;;;12.55;79.49;101362.01;1661804;85;21662;-84
2022/10/05 06:37:44;;;;;;;13.32;6.00;;;;;;;12.65;79.39;101359.21;1653186;85;21082;-83
2022/10/05 06:40:25;;;;;;;8.65;5.45;;;;;;;12.72;79.10;101367.73;1671810;85;21059;-83
2022/10/05 06:43:09;;;;;;;10.82;5.58;;;;;;;12.77;78.88;101368.76;1658588;85;21750;-85
2022/10/05 06:46:00;;;;;;;14.60;6.42;;;;;;;12.82;78.75;101367.57;1648553;85;21102;-87
2022/10/05 06:48:38;;;;;;;12.88;6.97;;;;;;;12.89;78.66;101360.23;1663977;84;21074;-87
2022/10/05 06:51:39;;;;;;;12.68;6.12;;;;;;;12.96;78.43;101369.23;1663331;85;21074;-83
2022/10/05 06:54:47;;;;;;;11.53;6.50;;;;;;;13.01;78.42;101375.53;1646156;85;21093;-87
2022/10/05 06:57:40;;;;;;;12.68;6.00;;;;;;;13.03;78.20;101385.27;1622358;87;21751;-86
2022/10/05 07:00:23;;;;;;;11.65;6.33;;;;;;;13.05;77.95;101390.60;1663651;85;21596;-83
2022/10/05 07:03:02;;;;;;;10.75;6.05;;;;;;;13.08;77.95;101388.02;1667593;85;21054;-83
2022/10/05 07:06:00;;;;;;;10.55;6.12;;;;;;;13.18;77.89;101378.16;1661011;84;21930;-83
2022/10/05 07:09:13;;;;;;;12.15;5.62;;;;;;;13.23;77.77;101372.96;1646271;85;21138;-87
2022/10/05 07:12:03;;;;;;;11.10;6.22;;;;;;;13.33;77.75;101382.07;1671705;85;21775;-82
2022/10/05 07:14:39;;;;;;;12.82;6.28;;;;;;;13.43;77.57;101390.67;1592126;88;21172;-82
2022/10/05 07:17:35;;;;;;;10.18;5.92;;;;;;;13.46;77.44;101393.40;1564886;90;21179;-82
2022/10/05 07:20:22;;;;;;;11.97;5.95;;;;;;;13.55;77.23;101400.23;1597626;89;21176;-82
2022/10/05 07:23:16;;;;;;;14.68;5.67;;;;;;;13.64;77.12;101402.17;1602337;89;21103;-83
2022/10/05 07:26:07;;;;;;;9.93;6.10;;;;;;;13.71;76.93;101398.81;1602148;89;21769;-82
2022/10/05 07:28:47;;;;;;;14.10;6.50;;;;;;;13.87;76.99;101389.47;1599380;88;21088;-82
2022/10/05 07:31:28;;;;;;;10.15;5.90;;;;;;;14.03;76.78;101386.70;1602220;88;21115;-83
2022/10/05 07:34:18;;;;;;;9.40;5.67;;;;;;;14.10;76.38;101393.92;1602077;88;21093;-83
2022/10/05 07:40:20;;;;;;;11.20;6.15;;;;;;;14.26;76.01;101395.11;1584588;89;22008;-82
2022/10/05 07:43:23;;;;;;;12.35;6.53;;;;;;;14.36;75.80;101393.57;1559354;91;21139;-82
2022/10/05 07:46:01;;;;;;;12.03;6.17;;;;;;;14.29;75.36;101375.77;1559197;90;21661;-86
2022/10/05 07:49:05;;;;;;;9.33;5.97;;;;;;;14.25;75.26;101374.81;1602471;87;21701;-86
2022/10/05 07:51:43;;;;;;;11.45;6.62;;;;;;;14.21;75.17;101363.70;1588891;88;21613;-87
2022/10/05 07:54:24;;;;;;;11.18;5.95;;;;;;;14.12;74.95;101357.78;1584651;90;22638;-87
2022/10/05 07:57:24;;;;;;;8.68;6.33;;;;;;;14.05;74.86;101360.28;1584489;90;21165;-82
2022/10/05 08:00:12;;;;;;;9.33;5.75;;;;;;;14.04;74.95;101364.69;1574389;89;21188;-87
2022/10/05 08:03:06;;;;;;;10.95;6.65;;;;;;;14.10;74.88;101362.59;1573808;89;21410;-87
2022/10/05 08:05:36;;;;;;;;;;;;;;;14.09;74.85;101359.03;1576727;90;21111;-83
2022/10/05 08:08:17;;;;;;;8.58;5.12;;;;;;;14.15;74.79;101353.88;1572746;89;21626;-83
2022/10/05 08:11:00;;;;;;;10.85;5.83;;;;;;;14.26;74.80;101357.16;1560724;91;21135;-87
2022/10/05 08:14:19;;;;;;;9.30;5.78;;;;;;;14.34;74.72;101352.89;1578845;89;21749;-83
2022/10/05 08:16:46;;;;;;;9.80;5.72;;;;;;;14.42;74.68;101330.55;1557496;90;21128;-87
2022/10/05 08:19:19;;;;;;;10.18;5.62;;;;;;;14.69;74.54;101346.95;1557399;91;21127;-84
2022/10/05 08:21:53;;;;;;;10.13;5.90;;;;;;;14.80;74.37;101343.62;1573718;91;21793;-84
2022/10/05 08:24:50;;;;;;;8.83;6.25;;;;;;;14.89;74.25;101347.75;1573367;89;21123;-87
2022/10/05 08:27:28;;;;;;;10.13;5.75;;;;;;;14.99;73.77;101348.34;1664048;85;21156;-88
2022/10/05 08:30:04;;;;;;;8.70;5.30;;;;;;;15.06;73.70;101355.55;1647125;85;21592;-87
2022/10/05 08:32:57;;;;;;;9.73;5.67;;;;;;;15.13;73.45;101356.11;1674259;85;21113;-84
2022/10/05 08:35:43;;;;;;;9.55;5.35;;;;;;;15.27;73.40;101360.73;1649870;85;21642;-87
2022/10/05 08:38:15;;;;;;;8.68;5.67;;;;;;;15.27;72.85;101374.88;1663975;85;21658;-84
2022/10/05 08:41:06;;;;;;;9.60;5.62;;;;;;;15.36;72.96;101375.02;1648678;85;21581;-87
2022/10/05 08:44:10;;;;;;;11.22;5.65;;;;;;;15.49;72.99;101373.45;1648655;85;21066;-87
2022/10/05 08:47:17;;;;;;;12.15;5.67;;;;;;;15.59;72.71;101374.91;1672081;85;21038;-84
2022/10/05 08:50:22;;;;;;;9.73;5.97;;;;;;;15.61;72.39;101375.38;1593418;87;22623;-84
2022/10/05 08:53:31;;;;;;;8.80;5.50;;;;;;;15.77;72.35;101389.81;1646302;85;21146;-88
2022/10/05 08:56:15;;;;;;;10.88;5.60;;;;;;;15.86;71.96;101393.92;1661773;84;21126;-84
2022/10/05 08:59:10;;;;;;;9.23;5.35;;;;;;;15.92;71.91;101393.99;1663833;85;21648;-84
2022/10/05 09:02:26;;;;;;;8.95;5.28;;;;;;;16.02;71.65;101398.98;1655845;85;21122;-88
2022/10/05 09:05:27;;;;;;;8.50;4.83;;;;;;;16.05;71.45;101400.36;1674065;85;22611;-84
2022/10/05 09:08:19;;;;;;;11.55;5.65;;;;;;;16.15;71.21;101400.03;1652463;85;21057;-83
2022/10/05 09:11:27;;;;;;;7.92;5.80;;;;;;;16.23;71.33;101389.05;1647440;85;21125;-83
2022/10/05 09:14:07;;;;;;;9.30;5.58;;;;;;;16.32;70.94;101390.49;1664351;85;21110;-83
2022/10/05 09:17:27;;;;;;;12.47;5.33;;;;;;;16.37;70.98;101380.34;1677042;84;21327;-87
2022/10/05 09:20:10;;;;;;;9.88;5.87;;;;;;;16.46;70.92;101370.73;1676954;85;21933;-87
2022/10/05 09:23:14;;;;;;;13.50;6.22;;;;;;;16.56;70.58;101349.58;1670034;84;21086;-83
2022/10/05 09:26:07;;;;;;;11.40;5.92;;;;;;;16.61;70.40;101356.72;1668739;85;21109;-87
2022/10/05 09:29:14;;;;;;;12.60;5.67;;;;;;;16.64;70.13;101352.74;1672391;85;21121;-83
2022/10/05 09:32:07;;;;;;;11.05;5.25;;;;;;;16.63;69.96;101356.30;1673096;85;21102;-86
2022/10/05 09:35:18;;;;;;;9.85;4.95;;;;;;;16.65;69.93;101351.00;1664832;84;21768;-83
2022/10/05 09:38:39;;;;;;;10.32;5.05;;;;;;;16.72;69.91;101356.80;1654990;85;21153;-87
2022/10/05 09:41:31;;;;;;;8.28;5.37;;;;;;;16.81;69.84;101361.32;1667736;85;21117;-87
2022/10/05 09:44:23;;;;;;;10.32;5.80;;;;;;;16.86;69.59;101359.19;1648018;85;21073;-83
2022/10/05 09:47:14;;;;;;;12.70;6.57;;;;;;;16.96;69.58;101369.91;1664019;85;21067;-86
2022/10/05 09:50:02;;;;;;;11.22;6.60;;;;;;;17.02;69.40;101365.96;1672139;85;21406;-83
2022/10/05 09:52:40;;;;;;;11.48;5.85;;;;;;;17.08;69.07;101370.91;1676351;85;21122;-86
2022/10/05 09:55:23;;;;;;;8.33;5.03;;;;;;;17.16;69.03;101359.45;1659941;84;21074;-83
2022/10/05 09:58:29;;;;;;;8.07;5.83;;;;;;;17.16;68.67;101362.11;1672795;85;21106;-83
2022/10/05 10:01:22;;;;;;;11.57;6.97;;;;;;;17.14;68.54;101365.20;1667211;85;21342;-87
2022/10/05 10:04:21;;;;;;;8.78;5.72;;;;;;;17.05;68.42;101375.31;1662787;84;21773;-83
2022/10/05 10:07:02;;;;;;;10.75;6.00;;;;;;;17.09;68.45;101375.78;1676666;84;21042;-86
2022/10/05 10:09:55;;;;;;;8.78;5.10;;;;;;;17.16;68.44;101383.39;1657662;84;21082;-87
2022/10/05 10:13:05;;;;;;;11.88;5.30;;;;;;;17.21;68.21;101384.29;1663107;85;21050;-86
2022/10/05 10:16:05;;;;;;;8.45;5.78;;;;;;;17.23;68.20;101381.20;1660670;85;21082;-87
2022/10/05 10:19:04;;;;;;;8.18;5.60;;;;;;;17.36;68.24;101372.87;1657539;84;21753;-87
2022/10/05 10:21:51;;;;;;;8.13;5.42;;;;;;;17.47;68.26;101365.85;1649343;85;21054;-87
2022/10/05 10:24:50;;;;;;;10.23;5.80;;;;;;;17.54;68.08;101362.80;1664144;85;21575;-83
2022/10/05 10:27:42;;;;;;;12.80;5.05;;;;;;;17.56;67.71;101360.59;1650811;85;21720;-86
2022/10/05 10:30:32;;;;;;;9.28;5.10;;;;;;;17.58;67.61;101356.61;1647446;85;21170;-83
2022/10/05 10:33:24;;;;;;;9.55;5.42;;;;;;;17.62;67.50;101356.62;1647054;85;22045;-87
2022/10/05 10:36:17;;;;;;;8.15;5.62;;;;;;;17.65;67.15;101350.44;1656467;85;21566;-83
2022/10/05 10:38:52;;;;;;;8.30;5.28;;;;;;;17.60;67.12;101355.72;1618479;87;21109;-87
2022/10/05 10:41:43;;;;;;;7.10;5.37;;;;;;;17.68;67.10;101359.76;1660983;85;21149;-83
2022/10/05 10:44:49;;;;;;;12.43;5.42;;;;;;;17.75;67.06;101354.04;1677153;85;21074;-83
2022/10/05 10:47:35;;;;;;;10.45;5.25;;;;;;;17.81;66.76;101351.40;1671629;85;21074;-83
2022/10/05 10:50:42;;;;;;;12.47;5.55;;;;;;;17.80;66.68;101346.52;1665449;85;21047;-83
2022/10/05 10:54:08;;;;;;;8.90;5.25;;;;;;;17.85;66.58;101346.14;1676647;85;21089;-83
2022/10/05 10:57:11;;;;;;;12.88;5.95;;;;;;;17.87;66.31;101343.05;1662017;84;21118;-83
2022/10/05 11:00:06;;;;;;;9.55;5.60;;;;;;;17.92;66.37;101335.06;1668587;85;21075;-83
2022/10/05 11:03:09;;;;;;;10.43;5.12;;;;;;;17.92;65.91;101338.17;1646986;85;22013;-87
2022/10/05 11:05:53;;;;;;;8.40;5.10;;;;;;;17.89;65.82;101344.39;1662996;85;21615;-87
2022/10/05 11:09:00;;;;;;;7.30;5.37;;;;;;;17.80;65.60;101334.98;1650084;85;21611;-87
2022/10/05 11:11:53;;;;;;;9.38;5.35;;;;;;;17.76;65.67;101329.20;1661329;85;21568;-87
2022/10/05 11:14:51;;;;;;;9.78;4.65;;;;;;;17.84;65.75;101335.03;1675135;85;21105;-87
2022/10/05 11:17:46;;;;;;;9.08;5.25;;;;;;;17.91;65.55;101332.41;1660410;84;21094;-86
2022/10/05 11:20:42;;;;;;;6.80;4.75;;;;;;;17.88;65.48;101323.50;1654102;85;21536;-86
2022/10/05 11:23:32;;;;;;;9.08;5.30;;;;;;;17.98;65.20;101332.86;1687995;84;21091;-87
2022/10/05 11:26:41;;;;;;;9.25;5.03;;;;;;;18.02;65.26;101333.34;1664641;85;21167;-83
2022/10/05 11:29:35;;;;;;;8.08;4.85;;;;;;;18.02;65.09;101330.23;1649966;85;21077;-86
2022/10/05 11:32:35;;;;;;;9.75;5.05;;;;;;;18.09;65.17;101327.58;1656968;84;21761;-87
2022/10/05 11:35:29;;;;;;;7.00;4.90;;;;;;;18.15;65.02;101333.83;1656917;84;21042;-86
2022/10/05 11:38:24;;;;;;;8.98;5.22;;;;;;;18.08;64.55;101332.02;1677147;84;21098;-87
2022/10/05 11:41:09;;;;;;;9.95;5.60;;;;;;;17.99;64.35;101335.53;1676927;84;21070;-87
2022/10/05 11:44:04;;;;;;;15.53;5.47;;;;;;;17.95;64.43;101323.55;1674079;85;21073;-87
2022/10/05 11:46:56;;;;;;;8.88;5.55;;;;;;;17.92;64.34;101320.86;1616281;85;22721;-86
2022/10/05 11:49:28;;;;;;;8.80;5.67;;;;;;;17.88;64.21;101318.17;1676678;85;21031;-86
2022/10/05 11:52:28;;;;;;;12.73;5.53;;;;;;;17.87;64.43;101320.41;1677328;84;21125;-83
2022/10/05 11:55:18;;;;;;;9.70;5.62;;;;;;;17.96;64.42;101315.57;1649521;85;21132;-84
2022/10/05 11:58:07;;;;;;;12.45;5.45;;;;;;;17.96;64.28;101323.97;1656805;85;21104;-88
2022/10/05 12:00:41;;;;;;;10.95;6.00;;;;;;;17.96;64.19;101324.89;1664401;84;21795;-88
2022/10/05 12:03:23;;;;;;;;;;;;;;;17.91;64.35;101328.42;1676835;84;21062;-83
2022/10/05 12:06:38;;;;;;;8.05;5.33;;;;;;;17.97;64.37;101321.33;1651553;85;20244;-83
2022/10/05 12:10:13;;;;;;;9.45;5.45;;;;;;;18.01;64.34;101315.57;1651968;85;21110;-83
2022/10/05 12:12:25;;;;;;;10.93;5.35;;;;;;;17.96;64.10;101314.23;1672348;85;21126;-83
2022/10/05 12:15:12;;;;;;;9.98;4.78;;;;;;;17.94;64.20;101299.99;1657382;84;21768;-82
2022/10/05 12:17:54;;;;;;;13.68;8.13;;;;;;;18.04;63.96;101316.92;1675824;84;21066;-87
2022/10/05 12:20:32;;;;;;;11.45;6.83;;;;;;;18.04;63.95;101321.80;1656413;85;21086;-87
2022/10/05 12:23:16;;;;;;;11.10;5.45;;;;;;;18.03;63.80;101313.34;1676182;84;21073;-86
2022/10/05 12:25:54;;;;;;;8.20;5.33;;;;;;;18.06;63.85;101319.14;1665046;85;21153;-85
2022/10/05 12:28:41;;;;;;;11.68;6.15;;;;;;;18.09;63.85;101312.47;1649183;85;21169;-86
2022/10/05 12:31:44;;;;;;;8.95;6.03;;;;;;;18.14;63.83;101321.83;1642821;85;21118;-83
2022/10/05 12:34:44;;;;;;;9.68;6.05;;;;;;;18.16;63.74;101319.61;1666070;84;21082;-83
2022/10/05 12:37:31;;;;;;;8.65;4.90;;;;;;;18.21;63.65;101320.97;1652043;85;21868;-83
2022/10/05 12:40:13;;;;;;;12.95;5.28;;;;;;;18.20;63.50;101324.05;1648420;85;21179;-86
2022/10/05 12:42:47;;;;;;;10.28;5.08;;;;;;;18.17;63.44;101320.06;1650892;85;22597;-83
2022/10/05 12:45:20;;;;;;;;;;;;;;;18.21;63.66;101314.31;1673142;85;21101;-83
2022/10/05 12:48:35;;;;;;;10.60;5.72;;;;;;;18.26;63.45;101312.52;1666626;85;20616;-87
2022/10/05 12:51:21;;;;;;;12.25;5.53;;;;;;;18.26;63.52;101316.52;1657960;85;21027;-86
2022/10/05 12:54:02;;;;;;;7.95;5.15;;;;;;;18.29;63.33;101315.66;1642971;85;21054;-89
2022/10/05 12:56:55;;;;;;;13.32;5.17;;;;;;;18.30;63.38;101313.41;1667066;85;22443;-86
2022/10/05 12:59:33;;;;;;;9.40;6.08;;;;;;;18.32;63.33;101313.89;1643334;85;21071;-86
2022/10/05 13:02:20;;;;;;;8.78;4.75;;;;;;;18.33;63.17;101312.98;1650063;85;21598;-83